Data for 02/22/2007

Time Sea-Level Adjusted Pressure Absolute Pressure Temperature Relative Humidity Dew Point   
(mb) (inHg) (mb) (inHg) (C) (F) (%) (C) (F)
00:05 1013 29.91 842 24.86 -0.6 30.9 60 -7.4 18.6
00:10 1013 29.91 842 24.86 -0.7 30.8 60 -7.5 18.5
00:15 1013 29.91 842 24.86 -0.8 30.6 61 -7.5 18.5
00:20 1013 29.91 842 24.86 -0.9 30.4 61 -7.5 18.5
00:25 1013 29.91 842 24.86 -1 30.2 62 -7.4 18.6
00:30 1013 29.91 842 24.86 -1.1 30 62 -7.4 18.6
00:35 1013 29.91 842 24.86 -1.2 29.9 62 -7.6 18.4
00:40 1013 29.91 842 24.86 -1.3 29.7 62 -7.7 18.2
00:45 1013 29.91 842 24.86 -1.4 29.5 62 -7.8 18
00:50 1013 29.91 842 24.86 -1.4 29.5 62 -7.7 18.2
00:55 1013 29.91 842 24.86 -1.4 29.5 62 -7.7 18.1
01:00 1013 29.91 842 24.86 -1.3 29.6 62 -7.7 18.2
01:05 1013 29.91 842 24.86 -1.3 29.7 62 -7.7 18.1
01:10 1013 29.91 842 24.86 -1.3 29.7 62 -7.5 18.4
01:15 1013 29.91 842 24.86 -1.3 29.7 62 -7.6 18.4
01:20 1013 29.91 842 24.86 -1.3 29.7 62 -7.5 18.4
01:25 1013 29.91 842 24.86 -1.3 29.6 63 -7.5 18.5
01:30 1013 29.91 842 24.86 -1.3 29.7 64 -7.3 18.8
01:35 1013 29.91 842 24.86 -1.1 30.1 63 -7.2 19
01:40 1012 29.88 842 24.86 -1 30.2 63 -7.2 19.1
01:45 1012 29.88 842 24.86 -1 30.2 64 -7.1 19.3
01:50 1012 29.88 842 24.86 -0.9 30.4 63 -7 19.4
01:55 1012 29.88 841 24.83 -0.8 30.5 63 -6.9 19.6
02:00 1012 29.88 841 24.83 -0.8 30.6 63 -6.9 19.6
02:05 1012 29.88 841 24.83 -0.9 30.3 64 -7 19.4
02:10 1012 29.88 841 24.83 -1 30.3 64 -7 19.4
02:15 1012 29.88 841 24.83 -0.9 30.5 64 -6.9 19.6
02:20 1012 29.88 841 24.83 -0.9 30.3 65 -6.8 19.8
02:25 1012 29.88 841 24.83 -0.9 30.3 65 -6.7 20
02:30 1012 29.88 841 24.83 -1 30.3 65 -6.7 19.9
02:35 1012 29.88 841 24.83 -0.9 30.5 66 -6.5 20.3
02:40 1012 29.88 841 24.83 -0.8 30.6 66 -6.4 20.4
02:45 1012 29.88 841 24.83 -0.7 30.8 65 -6.4 20.5
02:50 1012 29.88 841 24.83 -0.6 31 66 -6.2 20.8
02:55 1012 29.88 841 24.83 -0.6 30.9 66 -6.3 20.7
03:00 1012 29.88 841 24.83 -0.6 30.9 66 -6.3 20.6
03:05 1011 29.85 841 24.83 -0.7 30.7 66 -6.3 20.7
03:10 1011 29.85 841 24.83 -0.9 30.3 67 -6.4 20.5
03:15 1011 29.85 841 24.83 -1.1 30 68 -6.4 20.5
03:20 1011 29.85 841 24.83 -1.3 29.7 68 -6.4 20.5
03:25 1011 29.85 841 24.83 -1.3 29.6 68 -6.5 20.3
03:30 1011 29.85 841 24.83 -1.3 29.6 68 -6.5 20.2
03:35 1011 29.85 841 24.83 -1.4 29.5 68 -6.6 20.2
03:40 1011 29.85 841 24.83 -1.5 29.3 69 -6.6 20.2
03:45 1011 29.85 841 24.83 -1.5 29.3 68 -6.7 20
03:50 1011 29.85 841 24.83 -1.6 29.1 69 -6.6 20.1
03:55 1011 29.85 841 24.83 -1.6 29.2 68 -6.7 19.9
04:00 1011 29.85 840 24.81 -1.8 28.7 69 -6.7 19.9
04:05 1011 29.85 840 24.81 -1.7 28.9 69 -6.7 19.9
04:10 1011 29.85 840 24.81 -1.9 28.6 69 -6.9 19.7
04:15 1011 29.85 840 24.81 -1.8 28.8 69 -6.7 19.9
04:20 1011 29.85 840 24.81 -1.6 29.1 70 -6.4 20.5
04:25 1011 29.85 840 24.81 -1.3 29.6 69 -6.3 20.6
04:30 1011 29.85 840 24.81 -1.5 29.4 69 -6.5 20.4
04:35 1011 29.85 840 24.81 -1.6 29.1 69 -6.5 20.3
04:40 1011 29.85 840 24.81 -1.9 28.6 70 -6.6 20.1
04:45 1011 29.85 840 24.81 -2.1 28.2 71 -6.8 19.8
04:50 1011 29.85 840 24.81 -2.1 28.2 71 -6.8 19.8
04:55 1011 29.85 840 24.81 -1.9 28.6 69 -6.8 19.8
05:00 1011 29.85 840 24.81 -1.8 28.7 70 -6.6 20.1
05:05 1011 29.85 840 24.81 -1.7 28.9 71 -6.4 20.5
05:10 1011 29.85 840 24.81 -1.3 29.6 69 -6.3 20.7
05:15 1011 29.85 840 24.81 -1.1 29.9 69 -6.2 20.9
05:20 1011 29.85 840 24.81 -0.9 30.4 68 -6.1 21
05:25 1011 29.85 840 24.81 -0.7 30.8 68 -6 21.3
05:30 1011 29.85 840 24.81 -0.6 31 67 -6 21.2
05:35 1011 29.85 840 24.81 -0.4 31.3 66 -5.9 21.4
05:40 1011 29.85 840 24.81 -0.3 31.4 66 -5.9 21.4
05:45 1011 29.85 840 24.81 -0.4 31.3 66 -5.9 21.3
05:50 1011 29.85 840 24.81 -0.3 31.4 66 -5.8 21.5
05:55 1011 29.85 840 24.81 -0.6 31 67 -5.9 21.4
06:00 1011 29.85 840 24.81 -0.7 30.7 68 -5.9 21.3
06:05 1011 29.85 840 24.81 -1.1 30.1 69 -6.1 21.1
06:10 1011 29.85 840 24.81 -1.1 30 69 -6.1 21
06:15 1011 29.85 840 24.81 -1.2 29.8 69 -6.3 20.7
06:20 1011 29.85 840 24.81 -1.4 29.4 68 -6.6 20.2
06:25 1011 29.85 840 24.81 -1.5 29.3 68 -6.7 19.9
06:30 1011 29.85 840 24.81 -1.5 29.2 67 -6.9 19.7
06:35 1010 29.83 840 24.81 -1.8 28.8 67 -7 19.4
06:40 1010 29.83 840 24.81 -1.9 28.6 69 -6.9 19.7
06:45 1010 29.83 839 24.78 -1.6 29 66 -7.2 19
06:50 1010 29.83 839 24.78 -1.7 29 68 -6.7 19.9
06:55 1010 29.83 839 24.78 -1.6 29.1 68 -6.7 19.9
07:00 1010 29.83 839 24.78 -1.3 29.6 68 -6.6 20.2
07:05 1010 29.83 839 24.78 -1.3 29.7 67 -6.7 19.9
07:10 1010 29.83 839 24.78 -1.5 29.4 67 -6.8 19.7
07:15 1010 29.83 839 24.78 -1.6 29.2 70 -6.3 20.6
07:20 1010 29.83 839 24.78 -0.6 31 67 -5.9 21.4
07:25 1010 29.83 839 24.78 -0.1 31.9 67 -5.5 22.1
07:30 1010 29.83 839 24.78 0.2 32.4 65 -5.5 22.1
07:35 1010 29.83 839 24.78 0.5 32.9 65 -5.4 22.4
07:40 1010 29.83 839 24.78 0.6 33.1 63 -5.5 22
07:45 1010 29.83 839 24.78 -0.3 31.4 67 -5.8 21.6
07:50 1010 29.83 839 24.78 -0.6 30.8 65 -6.4 20.4
07:55 1010 29.83 839 24.78 -0.9 30.4 65 -6.7 20
08:00 1010 29.83 839 24.78 -1 30.1 65 -6.7 19.9
08:05 1010 29.83 839 24.78 -1.1 29.9 66 -6.7 19.9
08:10 1010 29.83 839 24.78 -1.2 29.8 67 -6.6 20.1
08:15 1010 29.83 839 24.78 -1.2 29.8 67 -6.6 20.1
08:20 1010 29.83 839 24.78 -1.2 29.8 67 -6.5 20.2
08:25 1010 29.83 839 24.78 -1.2 29.8 67 -6.5 20.2
08:30 1010 29.83 839 24.78 -1.1 30.1 67 -6.5 20.3
08:35 1010 29.83 839 24.78 -0.9 30.4 66 -6.4 20.5
08:40 1010 29.83 839 24.78 -0.9 30.3 67 -6.3 20.7
08:45 1010 29.83 839 24.78 -0.9 30.4 66 -6.5 20.3
08:50 1010 29.83 839 24.78 -0.7 30.7 66 -6.4 20.6
08:55 1010 29.83 839 24.78 -0.6 30.9 67 -6.1 21.1
09:00 1010 29.83 839 24.78 -0.7 30.8 67 -6.1 21.1
09:05 1010 29.83 839 24.78 -0.6 31 67 -5.9 21.3
09:10 1010 29.83 839 24.78 -0.4 31.3 66 -6 21.3
09:15 1010 29.83 839 24.78 -0.3 31.4 66 -5.9 21.4
09:20 1010 29.83 839 24.78 -0.2 31.6 67 -5.7 21.7
09:25 1009 29.8 839 24.78 0.1 32.2 67 -5.3 22.5
09:30 1009 29.8 839 24.78 1.1 33.9 66 -4.6 23.7
09:35 1009 29.8 839 24.78 2.2 35.9 63 -4.2 24.4
09:40 1009 29.8 839 24.78 2.7 36.9 62 -3.8 25.1
09:45 1009 29.8 838 24.75 2.9 37.1 62 -3.7 25.3
09:50 1009 29.8 838 24.75 3.1 37.6 62 -3.5 25.7
09:55 1009 29.8 838 24.75 3.6 38.4 60 -3.4 25.9
10:00 1009 29.8 838 24.75 4.2 39.5 59 -3.2 26.2
10:05 1009 29.8 838 24.75 4.8 40.7 57 -2.9 26.8
10:10 1009 29.8 838 24.75 5.2 41.3 56 -2.9 26.9
10:15 1009 29.8 838 24.75 5.5 41.9 56 -2.7 27.1
10:20 1009 29.8 838 24.75 5.8 42.5 54 -2.6 27.3
10:25 1009 29.8 838 24.75 6 42.9 54 -2.5 27.5
10:30 1009 29.8 838 24.75 6 42.8 54 -2.7 27.1
10:35 1008 29.77 838 24.75 6 42.9 54 -2.6 27.3
10:40 1008 29.77 838 24.75 6.2 43.2 54 -2.5 27.5
10:45 1008 29.77 838 24.75 6.4 43.5 53 -2.5 27.5
10:50 1008 29.77 838 24.75 5.6 42 53 -3.2 26.2
10:55 1008 29.77 837 24.72 4.4 40 56 -3.5 25.7
11:00 1008 29.77 837 24.72 4.1 39.3 56 -3.9 25
11:05 1008 29.77 837 24.72 3.9 39.1 57 -3.9 25
11:10 1008 29.77 837 24.72 3.8 38.9 58 -3.7 25.4
11:15 1008 29.77 837 24.72 3.6 38.6 57 -4.2 24.5
11:20 1008 29.77 837 24.72 3.6 38.5 57 -4.1 24.6
11:25 1008 29.77 837 24.72 3.5 38.3 58 -4.1 24.6
11:30 1008 29.77 837 24.72 4.2 39.6 54 -4.2 24.4
11:35 1008 29.77 837 24.72 5.1 41.1 50 -4.4 24.1
11:40 1008 29.77 837 24.72 5.4 41.7 51 -4 24.7
11:45 1008 29.77 837 24.72 5.5 41.9 52 -3.6 25.5
11:50 1008 29.77 837 24.72 5.2 41.4 52 -3.7 25.3
11:55 1008 29.77 837 24.72 5.4 41.8 51 -3.9 25
12:00 1008 29.77 837 24.72 4.8 40.6 56 -3.2 26.2
12:05 1007 29.74 837 24.72 5.1 41.2 53 -3.6 25.6
12:10 1007 29.74 837 24.72 5.4 41.7 56 -2.7 27.1
12:15 1007 29.74 836 24.69 6.3 43.3 51 -3.2 26.2
12:20 1007 29.74 836 24.69 6.6 43.9 49 -3.2 26.2
12:25 1007 29.74 836 24.69 6.7 44.1 49 -3.3 26
12:30 1007 29.74 836 24.69 6.3 43.4 52 -2.9 26.8
12:35 1007 29.74 836 24.69 7.2 44.9 47 -3.5 25.7
12:40 1007 29.74 836 24.69 6.2 43.2 51 -3.2 26.3
12:45 1007 29.74 836 24.69 6.3 43.4 49 -3.7 25.4
12:50 1007 29.74 836 24.69 6.9 44.5 51 -2.4 27.7
12:55 1007 29.74 836 24.69 7.6 45.6 47 -3 26.7
13:00 1006 29.71 836 24.69 8.4 47.2 48 -1.9 28.7
13:05 1006 29.71 836 24.69 9.9 49.7 43 -2.1 28.3
13:10 1006 29.71 835 24.66 9.9 49.9 47 -0.9 30.4
13:15 1006 29.71 835 24.66 9.7 49.5 43 -2.3 27.8
13:20 1006 29.71 835 24.66 9.3 48.8 45 -2.1 28.3
13:25 1006 29.71 835 24.66 9.9 49.8 42 -2.4 27.7
13:30 1006 29.71 835 24.66 10.3 50.5 39 -3.1 26.4
13:35 1006 29.71 835 24.66 10.8 51.5 39 -2.4 27.7
13:40 1006 29.71 835 24.66 10.9 51.6 41 -1.7 28.9
13:45 1006 29.71 835 24.66 9.6 49.3 43 -2.2 28
13:50 1006 29.71 835 24.66 9.6 49.4 46 -1.5 29.3
13:55 1006 29.71 835 24.66 9.8 49.6 44 -1.9 28.6
14:00 1006 29.71 835 24.66 9.6 49.2 44 -1.9 28.5
14:05 1006 29.71 835 24.66 8.8 47.9 47 -1.9 28.6
14:10 1006 29.71 835 24.66 8.7 47.6 43 -3.1 26.4
14:15 1005 29.68 835 24.66 8.4 47.2 48 -2 28.3
14:20 1005 29.68 834 24.63 8.2 46.7 47 -2.4 27.8
14:25 1005 29.68 834 24.63 8.2 46.7 48 -2.2 28
14:30 1005 29.68 834 24.63 8.8 47.8 46 -2.1 28.2
14:35 1005 29.68 834 24.63 8.9 48.1 47 -1.7 29
14:40 1005 29.68 834 24.63 8.3 46.9 48 -2.1 28.2
14:45 1005 29.68 834 24.63 7.9 46.3 48 -2.4 27.7
14:50 1005 29.68 834 24.63 7.7 45.9 50 -2 28.3
14:55 1005 29.68 834 24.63 8 46.4 48 -2.4 27.6
15:00 1005 29.68 834 24.63 8.5 47.2 48 -1.9 28.6
15:05 1005 29.68 834 24.63 8.2 46.8 50 -1.6 29.1
15:10 1005 29.68 834 24.63 7.9 46.1 48 -2.6 27.4
15:15 1005 29.68 834 24.63 7.8 46.1 48 -2.6 27.4
15:20 1005 29.68 834 24.63 8.2 46.7 48 -2.1 28.3
15:25 1005 29.68 834 24.63 8.1 46.6 47 -2.5 27.6
15:30 1005 29.68 834 24.63 7.8 46 49 -2.3 27.9
15:35 1005 29.68 834 24.63 7.9 46.3 51 -1.5 29.3
15:40 1005 29.68 834 24.63 7.5 45.5 52 -1.7 29
15:45 1005 29.68 834 24.63 7 44.6 55 -1.3 29.6
15:50 1005 29.68 834 24.63 6.9 44.4 55 -1.6 29.2
15:55 1005 29.68 834 24.63 6.9 44.4 52 -2.3 27.9
16:00 1004 29.65 834 24.63 7.2 45 45 -4 24.8
16:05 1004 29.65 833 24.6 8.2 46.8 40 -4.7 23.6
16:10 1004 29.65 833 24.6 8.3 46.9 43 -3.6 25.5
16:15 1004 29.65 833 24.6 7.8 46.1 46 -3.2 26.3
16:20 1004 29.65 833 24.6 8.1 46.5 43 -3.6 25.5
16:25 1004 29.65 833 24.6 8.2 46.8 43 -3.7 25.4
16:30 1004 29.65 833 24.6 8 46.3 45 -3.2 26.2
16:35 1004 29.65 833 24.6 7.4 45.4 50 -2.2 28
16:40 1004 29.65 833 24.6 7.4 45.2 49 -2.5 27.4
16:45 1004 29.65 833 24.6 7.4 45.4 48 -2.8 27
16:50 1004 29.65 833 24.6 7.5 45.5 47 -3 26.6
16:55 1004 29.65 833 24.6 7.5 45.5 45 -3.6 25.5
17:00 1004 29.65 833 24.6 7.8 46 40 -4.9 23.2
17:05 1004 29.65 833 24.6 8.2 46.8 39 -5 23
17:10 1004 29.65 833 24.6 8.1 46.6 40 -4.8 23.4
17:15 1004 29.65 833 24.6 8.5 47.3 37 -5.4 22.2
17:20 1004 29.65 833 24.6 8.5 47.3 39 -4.6 23.6
17:25 1004 29.65 833 24.6 8.4 47.2 38 -5.2 22.6
17:30 1004 29.65 833 24.6 8.5 47.3 37 -5.2 22.7
17:35 1004 29.65 833 24.6 8.5 47.4 38 -5.1 22.9
17:40 1004 29.65 833 24.6 8.2 46.8 42 -4 24.7
17:45 1004 29.65 833 24.6 7.8 46.1 40 -4.8 23.4
17:50 1004 29.65 833 24.6 7.9 46.2 42 -4.3 24.3
17:55 1004 29.65 833 24.6 7.7 45.9 41 -4.7 23.5
18:00 1004 29.65 833 24.6 7.8 46 42 -4.2 24.4
18:05 1003 29.62 833 24.6 7.8 46 41 -4.6 23.8
18:10 1003 29.62 833 24.6 7.9 46.2 40 -4.8 23.4
18:15 1003 29.62 833 24.6 8.1 46.5 40 -4.7 23.5
18:20 1003 29.62 833 24.6 7.9 46.2 43 -3.8 25.1
18:25 1003 29.62 833 24.6 7.4 45.3 43 -4.3 24.2
18:30 1003 29.62 832 24.57 7.4 45.2 42 -4.5 23.8
18:35 1003 29.62 832 24.57 7.4 45.3 43 -4.4 24.1
18:40 1003 29.62 832 24.57 7.2 45 42 -4.8 23.4
18:45 1003 29.62 832 24.57 7.6 45.6 40 -5 23
18:50 1003 29.62 832 24.57 7.6 45.7 44 -3.9 25.1
18:55 1003 29.62 832 24.57 6.8 44.3 47 -3.8 25.2
19:00 1003 29.62 832 24.57 6.5 43.7 45 -4.6 23.7
19:05 1003 29.62 832 24.57 6.8 44.3 45 -4.1 24.5
19:10 1003 29.62 832 24.57 6.6 43.9 46 -4.2 24.4
19:15 1003 29.62 833 24.6 6.4 43.5 47 -4.1 24.6
19:20 1003 29.62 832 24.57 6.2 43.2 48 -4 24.8
19:25 1003 29.62 832 24.57 6.1 43 49 -3.7 25.4
19:30 1003 29.62 832 24.57 5.8 42.4 50 -3.9 25.1
19:35 1003 29.62 832 24.57 5.9 42.6 47 -4.6 23.7
19:40 1003 29.62 832 24.57 6.3 43.3 45 -4.7 23.6
19:45 1003 29.62 832 24.57 6.2 43.1 48 -4 24.8
19:50 1003 29.62 832 24.57 6.3 43.3 47 -4.2 24.4
19:55 1003 29.62 832 24.57 6.2 43.1 48 -4 24.8
20:00 1003 29.62 832 24.57 5.9 42.5 48 -4.4 24.1
20:05 1003 29.62 832 24.57 5.9 42.6 49 -4.1 24.7
20:10 1003 29.62 832 24.57 6.3 43.4 44 -5.1 22.9
20:15 1003 29.62 832 24.57 7.1 44.7 44 -4.2 24.4
20:20 1002 29.59 832 24.57 7.4 45.3 42 -4.6 23.6
20:25 1002 29.59 832 24.57 7.7 45.9 42 -4.2 24.4
20:30 1002 29.59 832 24.57 7.3 45.2 45 -3.8 25.2
20:35 1002 29.59 832 24.57 7 44.7 47 -3.6 25.5
20:40 1002 29.59 832 24.57 6.9 44.4 46 -3.8 25.2
20:45 1002 29.59 832 24.57 6.9 44.4 48 -3.5 25.7
20:50 1002 29.59 832 24.57 6.7 44 48 -3.6 25.5
20:55 1002 29.59 832 24.57 6.7 44 49 -3.2 26.2
21:00 1002 29.59 831 24.54 6.4 43.6 49 -3.4 25.8
21:05 1002 29.59 831 24.54 6.4 43.6 51 -3.1 26.5
21:10 1002 29.59 831 24.54 5.5 41.8 53 -3.4 25.9
21:15 1002 29.59 831 24.54 5.3 41.5 53 -3.5 25.7
21:20 1002 29.59 831 24.54 5.6 42.1 51 -3.9 25
21:25 1002 29.59 831 24.54 5.3 41.6 53 -3.5 25.8
21:30 1002 29.59 831 24.54 5.2 41.3 51 -4.1 24.6
21:35 1002 29.59 831 24.54 5.6 42.1 51 -3.8 25.2
21:40 1002 29.59 831 24.54 5.1 41.2 52 -4.1 24.7
21:45 1002 29.59 831 24.54 5.2 41.3 52 -3.8 25.2
21:50 1002 29.59 831 24.54 5 40.9 53 -3.8 25.1
21:55 1001 29.56 831 24.54 4.9 40.8 53 -4 24.8
22:00 1001 29.56 831 24.54 4.9 40.8 53 -4 24.9
22:05 1001 29.56 831 24.54 4.9 40.8 54 -3.8 25.2
22:10 1001 29.56 831 24.54 4.8 40.7 53 -3.8 25.1
22:15 1001 29.56 830 24.51 5 41 53 -3.9 25
22:20 1001 29.56 830 24.51 4.9 40.9 53 -3.7 25.3
22:25 1001 29.56 830 24.51 5.1 41.2 52 -3.9 25
22:30 1001 29.56 830 24.51 5.5 41.8 51 -3.9 24.9
22:35 1001 29.56 830 24.51 5.6 42.1 51 -3.7 25.3
22:40 1001 29.56 830 24.51 5.5 42 51 -3.8 25.2
22:45 1001 29.56 830 24.51 5.4 41.7 51 -3.9 25
22:50 1001 29.56 830 24.51 5.5 41.8 52 -3.7 25.4
22:55 1001 29.56 830 24.51 5.3 41.6 52 -3.7 25.4
23:00 1001 29.56 830 24.51 5.1 41.2 53 -3.5 25.6
23:05 1001 29.56 830 24.51 4.8 40.6 56 -3.3 26
23:10 1001 29.56 830 24.51 4.4 39.9 57 -3.4 25.8
23:15 1001 29.56 830 24.51 4.2 39.6 57 -3.4 25.8
23:20 1001 29.56 830 24.51 4.5 40.1 55 -3.8 25.2
23:25 1000 29.53 830 24.51 5 41 54 -3.4 25.9
23:30 1000 29.53 829 24.48 5.1 41.2 54 -3.5 25.7
23:35 1000 29.53 829 24.48 5.3 41.5 52 -3.8 25.2
23:40 1000 29.53 829 24.48 5.4 41.6 53 -3.5 25.7
23:45 1000 29.53 829 24.48 5.1 41.1 55 -3.3 26.1
23:50 1000 29.53 829 24.48 5.1 41.1 54 -3.5 25.7
23:55 1000 29.53 829 24.48 5.3 41.5 53 -3.4 25.9
24:00 1000 29.53 829 24.48 5.5 41.9 53 -3.2 26.3